sensor_id;sensor_type;location;lat;lon;timestamp;P1;durP1;ratioP1;P2;durP2;ratioP2
39486;SDS011;25173;50.430;18.926;2022-11-12T00:03:06;51.20;;;32.03;;
39486;SDS011;25173;50.430;18.926;2022-11-12T00:06:26;54.47;;;34.80;;
39486;SDS011;25173;50.430;18.926;2022-11-12T00:09:45;51.58;;;32.95;;
39486;SDS011;25173;50.430;18.926;2022-11-12T00:13:05;50.50;;;32.92;;
39486;SDS011;25173;50.430;18.926;2022-11-12T00:16:24;52.42;;;33.17;;
39486;SDS011;25173;50.430;18.926;2022-11-12T00:19:43;53.53;;;32.05;;
39486;SDS011;25173;50.430;18.926;2022-11-12T00:23:03;53.42;;;33.70;;
39486;SDS011;25173;50.430;18.926;2022-11-12T00:26:22;59.45;;;36.30;;
39486;SDS011;25173;50.430;18.926;2022-11-12T00:29:41;64.28;;;38.53;;
39486;SDS011;25173;50.430;18.926;2022-11-12T00:33:01;67.70;;;38.95;;
39486;SDS011;25173;50.430;18.926;2022-11-12T00:36:21;62.92;;;37.50;;
39486;SDS011;25173;50.430;18.926;2022-11-12T00:39:41;56.05;;;35.83;;
39486;SDS011;25173;50.430;18.926;2022-11-12T00:43:00;62.35;;;37.40;;
39486;SDS011;25173;50.430;18.926;2022-11-12T00:46:19;63.72;;;39.38;;
39486;SDS011;25173;50.430;18.926;2022-11-12T00:49:39;65.57;;;40.80;;
39486;SDS011;25173;50.430;18.926;2022-11-12T00:52:58;72.95;;;47.20;;
39486;SDS011;25173;50.430;18.926;2022-11-12T00:56:17;63.20;;;41.17;;
39486;SDS011;25173;50.430;18.926;2022-11-12T00:59:37;62.60;;;39.90;;
39486;SDS011;25173;50.430;18.926;2022-11-12T01:02:56;67.25;;;38.85;;
39486;SDS011;25173;50.430;18.926;2022-11-12T01:06:17;59.20;;;35.65;;
39486;SDS011;25173;50.430;18.926;2022-11-12T01:09:38;56.30;;;35.97;;
39486;SDS011;25173;50.430;18.926;2022-11-12T01:12:57;65.28;;;41.33;;
39486;SDS011;25173;50.430;18.926;2022-11-12T01:16:18;63.45;;;38.20;;
39486;SDS011;25173;50.430;18.926;2022-11-12T01:19:39;60.70;;;36.58;;
39486;SDS011;25173;50.430;18.926;2022-11-12T01:22:58;62.95;;;38.72;;
39486;SDS011;25173;50.430;18.926;2022-11-12T01:26:19;60.58;;;37.08;;
39486;SDS011;25173;50.430;18.926;2022-11-12T01:29:39;52.47;;;35.30;;
39486;SDS011;25173;50.430;18.926;2022-11-12T01:32:58;59.50;;;34.53;;
39486;SDS011;25173;50.430;18.926;2022-11-12T01:36:18;59.50;;;36.63;;
39486;SDS011;25173;50.430;18.926;2022-11-12T01:39:37;63.58;;;38.65;;
39486;SDS011;25173;50.430;18.926;2022-11-12T01:42:57;60.10;;;36.92;;
39486;SDS011;25173;50.430;18.926;2022-11-12T01:46:18;58.70;;;35.78;;
39486;SDS011;25173;50.430;18.926;2022-11-12T01:49:51;58.95;;;34.67;;
39486;SDS011;25173;50.430;18.926;2022-11-12T01:53:14;53.55;;;33.13;;
39486;SDS011;25173;50.430;18.926;2022-11-12T01:56:33;49.50;;;32.17;;
39486;SDS011;25173;50.430;18.926;2022-11-12T01:59:55;55.72;;;33.67;;
39486;SDS011;25173;50.430;18.926;2022-11-12T02:03:19;59.92;;;40.88;;
39486;SDS011;25173;50.430;18.926;2022-11-12T02:06:40;55.78;;;43.28;;
39486;SDS011;25173;50.430;18.926;2022-11-12T02:10:03;60.00;;;40.65;;
39486;SDS011;25173;50.430;18.926;2022-11-12T02:13:23;52.90;;;33.30;;
39486;SDS011;25173;50.430;18.926;2022-11-12T02:17:01;49.65;;;31.55;;
39486;SDS011;25173;50.430;18.926;2022-11-12T02:20:21;48.80;;;32.08;;
39486;SDS011;25173;50.430;18.926;2022-11-12T02:23:40;52.42;;;31.58;;
39486;SDS011;25173;50.430;18.926;2022-11-12T02:26:59;46.83;;;30.00;;
39486;SDS011;25173;50.430;18.926;2022-11-12T02:30:19;51.15;;;33.38;;
39486;SDS011;25173;50.430;18.926;2022-11-12T02:33:48;55.63;;;33.83;;
39486;SDS011;25173;50.430;18.926;2022-11-12T02:37:08;54.85;;;32.10;;
39486;SDS011;25173;50.430;18.926;2022-11-12T02:40:27;52.53;;;31.90;;
39486;SDS011;25173;50.430;18.926;2022-11-12T02:43:46;61.55;;;36.22;;
39486;SDS011;25173;50.430;18.926;2022-11-12T02:47:06;53.08;;;32.00;;
39486;SDS011;25173;50.430;18.926;2022-11-12T02:50:25;54.10;;;33.20;;
39486;SDS011;25173;50.430;18.926;2022-11-12T02:53:45;50.10;;;32.13;;
39486;SDS011;25173;50.430;18.926;2022-11-12T02:57:04;59.38;;;38.40;;
39486;SDS011;25173;50.430;18.926;2022-11-12T03:00:23;58.30;;;35.33;;
39486;SDS011;25173;50.430;18.926;2022-11-12T03:03:42;66.82;;;38.33;;
39486;SDS011;25173;50.430;18.926;2022-11-12T03:07:02;65.38;;;40.13;;
39486;SDS011;25173;50.430;18.926;2022-11-12T03:10:21;71.78;;;44.08;;
39486;SDS011;25173;50.430;18.926;2022-11-12T03:13:40;71.82;;;43.83;;
39486;SDS011;25173;50.430;18.926;2022-11-12T03:17:00;68.15;;;41.90;;
39486;SDS011;25173;50.430;18.926;2022-11-12T03:20:20;77.47;;;47.10;;
39486;SDS011;25173;50.430;18.926;2022-11-12T03:23:39;70.70;;;43.72;;
39486;SDS011;25173;50.430;18.926;2022-11-12T03:26:58;67.18;;;39.50;;
39486;SDS011;25173;50.430;18.926;2022-11-12T03:30:17;67.85;;;38.85;;
39486;SDS011;25173;50.430;18.926;2022-11-12T03:33:37;68.53;;;40.45;;
39486;SDS011;25173;50.430;18.926;2022-11-12T03:36:56;76.97;;;41.47;;
39486;SDS011;25173;50.430;18.926;2022-11-12T03:40:16;73.38;;;42.55;;
39486;SDS011;25173;50.430;18.926;2022-11-12T03:43:36;76.47;;;43.95;;
39486;SDS011;25173;50.430;18.926;2022-11-12T03:46:56;73.55;;;45.40;;
39486;SDS011;25173;50.430;18.926;2022-11-12T03:50:15;77.75;;;50.60;;
39486;SDS011;25173;50.430;18.926;2022-11-12T03:53:36;106.55;;;77.80;;
39486;SDS011;25173;50.430;18.926;2022-11-12T03:56:55;74.38;;;45.15;;
39486;SDS011;25173;50.430;18.926;2022-11-12T04:00:14;67.28;;;41.20;;
39486;SDS011;25173;50.430;18.926;2022-11-12T04:03:34;65.07;;;43.08;;
39486;SDS011;25173;50.430;18.926;2022-11-12T04:06:53;63.00;;;37.83;;
39486;SDS011;25173;50.430;18.926;2022-11-12T04:10:31;72.18;;;44.17;;
39486;SDS011;25173;50.430;18.926;2022-11-12T04:13:50;72.82;;;44.88;;
39486;SDS011;25173;50.430;18.926;2022-11-12T04:17:10;64.75;;;41.10;;
39486;SDS011;25173;50.430;18.926;2022-11-12T04:20:47;53.40;;;34.97;;
39486;SDS011;25173;50.430;18.926;2022-11-12T04:28:05;56.35;;;34.30;;
39486;SDS011;25173;50.430;18.926;2022-11-12T04:31:24;49.08;;;32.17;;
39486;SDS011;25173;50.430;18.926;2022-11-12T04:34:44;47.88;;;29.80;;
39486;SDS011;25173;50.430;18.926;2022-11-12T04:38:03;48.90;;;30.95;;
39486;SDS011;25173;50.430;18.926;2022-11-12T04:41:22;48.92;;;29.58;;
39486;SDS011;25173;50.430;18.926;2022-11-12T04:45:00;48.00;;;30.90;;
39486;SDS011;25173;50.430;18.926;2022-11-12T04:48:23;43.88;;;29.42;;
39486;SDS011;25173;50.430;18.926;2022-11-12T04:51:43;47.97;;;31.63;;
39486;SDS011;25173;50.430;18.926;2022-11-12T04:55:21;46.58;;;28.80;;
39486;SDS011;25173;50.430;18.926;2022-11-12T04:58:40;47.13;;;28.90;;
39486;SDS011;25173;50.430;18.926;2022-11-12T05:01:59;46.47;;;28.63;;
39486;SDS011;25173;50.430;18.926;2022-11-12T05:05:19;42.55;;;27.67;;
39486;SDS011;25173;50.430;18.926;2022-11-12T05:08:38;43.72;;;27.90;;
39486;SDS011;25173;50.430;18.926;2022-11-12T05:11:57;40.42;;;26.60;;
39486;SDS011;25173;50.430;18.926;2022-11-12T05:15:17;43.92;;;28.20;;
39486;SDS011;25173;50.430;18.926;2022-11-12T05:18:36;46.92;;;31.30;;
39486;SDS011;25173;50.430;18.926;2022-11-12T05:21:56;46.45;;;30.50;;
39486;SDS011;25173;50.430;18.926;2022-11-12T05:25:24;49.90;;;34.00;;
39486;SDS011;25173;50.430;18.926;2022-11-12T05:28:43;47.85;;;30.98;;
39486;SDS011;25173;50.430;18.926;2022-11-12T05:32:03;57.30;;;34.92;;
39486;SDS011;25173;50.430;18.926;2022-11-12T05:35:24;52.95;;;36.65;;
39486;SDS011;25173;50.430;18.926;2022-11-12T05:38:43;54.15;;;34.53;;
39486;SDS011;25173;50.430;18.926;2022-11-12T05:42:03;41.38;;;26.75;;
39486;SDS011;25173;50.430;18.926;2022-11-12T05:45:22;44.08;;;27.05;;
39486;SDS011;25173;50.430;18.926;2022-11-12T05:48:41;39.33;;;26.85;;
39486;SDS011;25173;50.430;18.926;2022-11-12T05:52:01;42.47;;;27.17;;
39486;SDS011;25173;50.430;18.926;2022-11-12T05:55:20;44.30;;;29.20;;
39486;SDS011;25173;50.430;18.926;2022-11-12T05:58:39;45.78;;;30.13;;
39486;SDS011;25173;50.430;18.926;2022-11-12T06:01:59;44.08;;;28.33;;
39486;SDS011;25173;50.430;18.926;2022-11-12T06:05:18;48.97;;;30.35;;
39486;SDS011;25173;50.430;18.926;2022-11-12T06:08:38;44.42;;;28.33;;
39486;SDS011;25173;50.430;18.926;2022-11-12T06:11:57;50.70;;;31.40;;
39486;SDS011;25173;50.430;18.926;2022-11-12T06:15:17;45.85;;;27.38;;
39486;SDS011;25173;50.430;18.926;2022-11-12T06:18:36;47.85;;;29.50;;
39486;SDS011;25173;50.430;18.926;2022-11-12T06:21:56;50.40;;;30.88;;
39486;SDS011;25173;50.430;18.926;2022-11-12T06:25:15;47.13;;;31.90;;
39486;SDS011;25173;50.430;18.926;2022-11-12T06:28:35;37.67;;;25.15;;
39486;SDS011;25173;50.430;18.926;2022-11-12T06:31:54;40.75;;;26.98;;
39486;SDS011;25173;50.430;18.926;2022-11-12T06:35:13;44.47;;;28.00;;
39486;SDS011;25173;50.430;18.926;2022-11-12T06:38:37;40.35;;;26.33;;
39486;SDS011;25173;50.430;18.926;2022-11-12T06:41:57;59.25;;;33.15;;
39486;SDS011;25173;50.430;18.926;2022-11-12T06:45:17;58.00;;;32.80;;
39486;SDS011;25173;50.430;18.926;2022-11-12T06:48:36;46.70;;;30.13;;
39486;SDS011;25173;50.430;18.926;2022-11-12T06:51:55;48.33;;;30.13;;
39486;SDS011;25173;50.430;18.926;2022-11-12T06:55:15;52.72;;;32.60;;
39486;SDS011;25173;50.430;18.926;2022-11-12T06:58:34;60.03;;;30.80;;
39486;SDS011;25173;50.430;18.926;2022-11-12T07:01:54;45.42;;;27.67;;
39486;SDS011;25173;50.430;18.926;2022-11-12T07:05:13;44.63;;;28.75;;
39486;SDS011;25173;50.430;18.926;2022-11-12T07:08:33;53.70;;;35.45;;
39486;SDS011;25173;50.430;18.926;2022-11-12T07:11:52;60.58;;;43.15;;
39486;SDS011;25173;50.430;18.926;2022-11-12T07:15:11;32.28;;;22.05;;
39486;SDS011;25173;50.430;18.926;2022-11-12T07:18:31;29.90;;;21.05;;
39486;SDS011;25173;50.430;18.926;2022-11-12T07:21:51;29.67;;;19.00;;
39486;SDS011;25173;50.430;18.926;2022-11-12T07:25:10;30.70;;;20.75;;
39486;SDS011;25173;50.430;18.926;2022-11-12T07:28:30;29.55;;;20.45;;
39486;SDS011;25173;50.430;18.926;2022-11-12T07:31:49;35.70;;;21.83;;
39486;SDS011;25173;50.430;18.926;2022-11-12T07:35:09;29.73;;;21.35;;
39486;SDS011;25173;50.430;18.926;2022-11-12T07:38:31;33.78;;;23.77;;
39486;SDS011;25173;50.430;18.926;2022-11-12T07:41:51;33.38;;;21.25;;
39486;SDS011;25173;50.430;18.926;2022-11-12T07:45:10;32.05;;;21.48;;
39486;SDS011;25173;50.430;18.926;2022-11-12T07:48:30;30.08;;;20.02;;
39486;SDS011;25173;50.430;18.926;2022-11-12T07:51:50;34.00;;;21.45;;
39486;SDS011;25173;50.430;18.926;2022-11-12T07:55:09;28.50;;;19.73;;
39486;SDS011;25173;50.430;18.926;2022-11-12T07:58:29;31.08;;;19.90;;
39486;SDS011;25173;50.430;18.926;2022-11-12T08:01:49;49.13;;;30.48;;
39486;SDS011;25173;50.430;18.926;2022-11-12T08:05:08;58.05;;;32.45;;
39486;SDS011;25173;50.430;18.926;2022-11-12T08:08:28;109.93;;;58.85;;
39486;SDS011;25173;50.430;18.926;2022-11-12T08:11:47;110.97;;;61.03;;
39486;SDS011;25173;50.430;18.926;2022-11-12T08:15:09;55.53;;;31.95;;
39486;SDS011;25173;50.430;18.926;2022-11-12T08:18:28;33.78;;;20.98;;
39486;SDS011;25173;50.430;18.926;2022-11-12T08:21:49;27.67;;;17.88;;
39486;SDS011;25173;50.430;18.926;2022-11-12T08:25:08;29.40;;;18.80;;
39486;SDS011;25173;50.430;18.926;2022-11-12T08:28:28;42.08;;;27.27;;
39486;SDS011;25173;50.430;18.926;2022-11-12T08:31:48;30.52;;;19.50;;
39486;SDS011;25173;50.430;18.926;2022-11-12T08:35:07;30.05;;;17.85;;
39486;SDS011;25173;50.430;18.926;2022-11-12T08:38:26;27.58;;;16.77;;
39486;SDS011;25173;50.430;18.926;2022-11-12T08:41:46;29.35;;;17.60;;
39486;SDS011;25173;50.430;18.926;2022-11-12T08:45:05;20.05;;;13.88;;
39486;SDS011;25173;50.430;18.926;2022-11-12T08:48:25;21.35;;;15.07;;
39486;SDS011;25173;50.430;18.926;2022-11-12T08:51:45;22.88;;;15.32;;
39486;SDS011;25173;50.430;18.926;2022-11-12T08:55:05;23.13;;;15.18;;
39486;SDS011;25173;50.430;18.926;2022-11-12T08:58:25;23.40;;;14.63;;
39486;SDS011;25173;50.430;18.926;2022-11-12T09:01:44;26.10;;;14.30;;
39486;SDS011;25173;50.430;18.926;2022-11-12T09:05:04;18.98;;;13.55;;
39486;SDS011;25173;50.430;18.926;2022-11-12T09:08:24;22.60;;;14.48;;
39486;SDS011;25173;50.430;18.926;2022-11-12T09:11:43;19.55;;;14.30;;
39486;SDS011;25173;50.430;18.926;2022-11-12T09:15:03;17.58;;;11.68;;
39486;SDS011;25173;50.430;18.926;2022-11-12T09:18:23;17.73;;;11.05;;
39486;SDS011;25173;50.430;18.926;2022-11-12T09:21:42;17.35;;;11.85;;
39486;SDS011;25173;50.430;18.926;2022-11-12T09:25:02;14.10;;;10.82;;
39486;SDS011;25173;50.430;18.926;2022-11-12T09:28:21;17.35;;;11.50;;
39486;SDS011;25173;50.430;18.926;2022-11-12T09:31:41;22.02;;;13.15;;
39486;SDS011;25173;50.430;18.926;2022-11-12T09:35:00;17.58;;;12.05;;
39486;SDS011;25173;50.430;18.926;2022-11-12T09:38:19;17.70;;;11.93;;
39486;SDS011;25173;50.430;18.926;2022-11-12T09:41:40;19.27;;;13.25;;
39486;SDS011;25173;50.430;18.926;2022-11-12T09:48:24;15.90;;;11.32;;
39486;SDS011;25173;50.430;18.926;2022-11-12T09:51:54;16.00;;;10.23;;
39486;SDS011;25173;50.430;18.926;2022-11-12T09:55:24;19.17;;;11.23;;
39486;SDS011;25173;50.430;18.926;2022-11-12T09:58:58;16.67;;;11.07;;
39486;SDS011;25173;50.430;18.926;2022-11-12T10:05:46;18.80;;;10.07;;
39486;SDS011;25173;50.430;18.926;2022-11-12T10:09:13;20.38;;;11.18;;
39486;SDS011;25173;50.430;18.926;2022-11-12T10:16:49;17.17;;;10.93;;
39486;SDS011;25173;50.430;18.926;2022-11-12T10:20:34;16.75;;;9.48;;
39486;SDS011;25173;50.430;18.926;2022-11-12T10:24:00;15.55;;;10.60;;
39486;SDS011;25173;50.430;18.926;2022-11-12T10:27:21;18.77;;;10.35;;
39486;SDS011;25173;50.430;18.926;2022-11-12T10:30:45;16.83;;;9.75;;
39486;SDS011;25173;50.430;18.926;2022-11-12T10:34:15;18.13;;;9.68;;
39486;SDS011;25173;50.430;18.926;2022-11-12T10:41:18;17.88;;;11.77;;
39486;SDS011;25173;50.430;18.926;2022-11-12T10:44:39;17.55;;;10.65;;
39486;SDS011;25173;50.430;18.926;2022-11-12T10:48:01;19.88;;;10.57;;
39486;SDS011;25173;50.430;18.926;2022-11-12T10:51:38;18.05;;;10.93;;
39486;SDS011;25173;50.430;18.926;2022-11-12T10:58:34;15.45;;;10.43;;
39486;SDS011;25173;50.430;18.926;2022-11-12T11:01:55;16.63;;;10.25;;
39486;SDS011;25173;50.430;18.926;2022-11-12T11:05:29;16.33;;;10.27;;
39486;SDS011;25173;50.430;18.926;2022-11-12T11:12:32;13.50;;;9.73;;
39486;SDS011;25173;50.430;18.926;2022-11-12T11:15:56;16.05;;;11.68;;
39486;SDS011;25173;50.430;18.926;2022-11-12T11:19:20;18.38;;;11.40;;
39486;SDS011;25173;50.430;18.926;2022-11-12T11:26:00;12.93;;;10.45;;
39486;SDS011;25173;50.430;18.926;2022-11-12T11:30:06;19.77;;;11.50;;
39486;SDS011;25173;50.430;18.926;2022-11-12T11:33:39;18.63;;;11.48;;
39486;SDS011;25173;50.430;18.926;2022-11-12T11:44:54;16.55;;;10.38;;
39486;SDS011;25173;50.430;18.926;2022-11-12T11:56:08;17.00;;;11.13;;
39486;SDS011;25173;50.430;18.926;2022-11-12T11:59:41;17.70;;;10.32;;
39486;SDS011;25173;50.430;18.926;2022-11-12T12:03:19;14.23;;;9.55;;
39486;SDS011;25173;50.430;18.926;2022-11-12T12:14:26;12.65;;;9.35;;
39486;SDS011;25173;50.430;18.926;2022-11-12T12:21:22;15.77;;;8.65;;
39486;SDS011;25173;50.430;18.926;2022-11-12T12:24:51;14.52;;;11.43;;
39486;SDS011;25173;50.430;18.926;2022-11-12T12:28:20;14.10;;;7.97;;
39486;SDS011;25173;50.430;18.926;2022-11-12T12:38:59;16.17;;;11.25;;
39486;SDS011;25173;50.430;18.926;2022-11-12T12:42:24;21.67;;;10.48;;
39486;SDS011;25173;50.430;18.926;2022-11-12T12:45:47;19.38;;;11.77;;
39486;SDS011;25173;50.430;18.926;2022-11-12T12:49:06;15.52;;;10.07;;
39486;SDS011;25173;50.430;18.926;2022-11-12T12:52:57;13.65;;;7.78;;
39486;SDS011;25173;50.430;18.926;2022-11-12T12:59:41;22.95;;;10.90;;
39486;SDS011;25173;50.430;18.926;2022-11-12T13:03:01;18.00;;;8.48;;
39486;SDS011;25173;50.430;18.926;2022-11-12T13:06:21;13.60;;;10.55;;
39486;SDS011;25173;50.430;18.926;2022-11-12T13:09:41;21.67;;;9.65;;
39486;SDS011;25173;50.430;18.926;2022-11-12T13:31:02;13.63;;;8.73;;
39486;SDS011;25173;50.430;18.926;2022-11-12T13:34:25;17.88;;;9.90;;
39486;SDS011;25173;50.430;18.926;2022-11-12T13:41:21;28.55;;;15.02;;
39486;SDS011;25173;50.430;18.926;2022-11-12T13:45:01;12.23;;;7.28;;
39486;SDS011;25173;50.430;18.926;2022-11-12T13:48:27;12.40;;;7.72;;
39486;SDS011;25173;50.430;18.926;2022-11-12T13:51:50;220.05;;;110.00;;
39486;SDS011;25173;50.430;18.926;2022-11-12T13:55:12;98.07;;;59.95;;
39486;SDS011;25173;50.430;18.926;2022-11-12T13:58:33;16.00;;;10.43;;
39486;SDS011;25173;50.430;18.926;2022-11-12T14:01:53;70.03;;;48.70;;
39486;SDS011;25173;50.430;18.926;2022-11-12T14:05:14;82.15;;;29.77;;
39486;SDS011;25173;50.430;18.926;2022-11-12T14:08:39;106.45;;;48.28;;
39486;SDS011;25173;50.430;18.926;2022-11-12T14:23:12;133.25;;;96.03;;
39486;SDS011;25173;50.430;18.926;2022-11-12T14:26:37;447.52;;;153.57;;
39486;SDS011;25173;50.430;18.926;2022-11-12T14:30:10;281.73;;;112.70;;
39486;SDS011;25173;50.430;18.926;2022-11-12T14:33:34;162.63;;;83.07;;
39486;SDS011;25173;50.430;18.926;2022-11-12T14:36:54;483.90;;;306.40;;
39486;SDS011;25173;50.430;18.926;2022-11-12T14:40:16;40.85;;;19.75;;
39486;SDS011;25173;50.430;18.926;2022-11-12T14:43:43;85.05;;;49.58;;
39486;SDS011;25173;50.430;18.926;2022-11-12T14:47:04;28.25;;;16.65;;
39486;SDS011;25173;50.430;18.926;2022-11-12T14:50:32;25.83;;;15.07;;
39486;SDS011;25173;50.430;18.926;2022-11-12T14:53:53;43.78;;;31.00;;
39486;SDS011;25173;50.430;18.926;2022-11-12T14:57:28;23.42;;;14.82;;
39486;SDS011;25173;50.430;18.926;2022-11-12T15:00:50;156.88;;;80.90;;
39486;SDS011;25173;50.430;18.926;2022-11-12T15:07:31;102.78;;;59.00;;
39486;SDS011;25173;50.430;18.926;2022-11-12T15:10:52;64.82;;;41.42;;
39486;SDS011;25173;50.430;18.926;2022-11-12T15:14:18;108.63;;;72.82;;
39486;SDS011;25173;50.430;18.926;2022-11-12T15:17:39;103.68;;;73.70;;
39486;SDS011;25173;50.430;18.926;2022-11-12T15:24:30;60.30;;;53.58;;
39486;SDS011;25173;50.430;18.926;2022-11-12T15:27:49;69.35;;;46.45;;
39486;SDS011;25173;50.430;18.926;2022-11-12T15:31:16;72.15;;;61.03;;
39486;SDS011;25173;50.430;18.926;2022-11-12T15:37:56;71.55;;;51.45;;
39486;SDS011;25173;50.430;18.926;2022-11-12T15:41:24;66.85;;;48.78;;
39486;SDS011;25173;50.430;18.926;2022-11-12T15:48:07;96.57;;;61.28;;
39486;SDS011;25173;50.430;18.926;2022-11-12T15:51:29;123.85;;;72.05;;
39486;SDS011;25173;50.430;18.926;2022-11-12T15:54:49;299.23;;;162.70;;
39486;SDS011;25173;50.430;18.926;2022-11-12T15:58:16;356.02;;;199.05;;
39486;SDS011;25173;50.430;18.926;2022-11-12T16:01:38;295.15;;;159.88;;
39486;SDS011;25173;50.430;18.926;2022-11-12T16:04:58;347.48;;;198.15;;
39486;SDS011;25173;50.430;18.926;2022-11-12T16:08:18;373.60;;;206.90;;
39486;SDS011;25173;50.430;18.926;2022-11-12T16:11:37;573.72;;;300.27;;
39486;SDS011;25173;50.430;18.926;2022-11-12T16:14:56;414.70;;;199.10;;
39486;SDS011;25173;50.430;18.926;2022-11-12T16:18:17;588.28;;;331.55;;
39486;SDS011;25173;50.430;18.926;2022-11-12T16:21:36;595.95;;;350.75;;
39486;SDS011;25173;50.430;18.926;2022-11-12T16:24:55;450.08;;;264.33;;
39486;SDS011;25173;50.430;18.926;2022-11-12T16:28:15;413.70;;;228.48;;
39486;SDS011;25173;50.430;18.926;2022-11-12T16:31:36;247.73;;;133.00;;
39486;SDS011;25173;50.430;18.926;2022-11-12T16:34:55;247.90;;;131.10;;
39486;SDS011;25173;50.430;18.926;2022-11-12T16:38:16;259.33;;;132.93;;
39486;SDS011;25173;50.430;18.926;2022-11-12T16:41:35;233.18;;;118.93;;
39486;SDS011;25173;50.430;18.926;2022-11-12T16:44:55;218.77;;;118.45;;
39486;SDS011;25173;50.430;18.926;2022-11-12T16:48:18;242.55;;;128.65;;
39486;SDS011;25173;50.430;18.926;2022-11-12T16:51:38;192.70;;;102.63;;
39486;SDS011;25173;50.430;18.926;2022-11-12T16:54:59;166.55;;;95.75;;
39486;SDS011;25173;50.430;18.926;2022-11-12T16:58:18;137.15;;;77.15;;
39486;SDS011;25173;50.430;18.926;2022-11-12T17:01:37;126.80;;;73.88;;
39486;SDS011;25173;50.430;18.926;2022-11-12T17:04:59;178.40;;;100.15;;
39486;SDS011;25173;50.430;18.926;2022-11-12T17:08:20;120.07;;;72.95;;
39486;SDS011;25173;50.430;18.926;2022-11-12T17:11:39;104.95;;;63.88;;
39486;SDS011;25173;50.430;18.926;2022-11-12T17:14:59;101.55;;;62.63;;
39486;SDS011;25173;50.430;18.926;2022-11-12T17:18:18;102.07;;;63.15;;
39486;SDS011;25173;50.430;18.926;2022-11-12T17:21:37;111.53;;;71.88;;
39486;SDS011;25173;50.430;18.926;2022-11-12T17:24:57;99.95;;;61.35;;
39486;SDS011;25173;50.430;18.926;2022-11-12T17:28:17;114.20;;;67.22;;
39486;SDS011;25173;50.430;18.926;2022-11-12T17:31:36;139.68;;;75.10;;
39486;SDS011;25173;50.430;18.926;2022-11-12T17:34:55;141.63;;;72.78;;
39486;SDS011;25173;50.430;18.926;2022-11-12T17:38:14;135.38;;;75.63;;
39486;SDS011;25173;50.430;18.926;2022-11-12T17:41:34;142.93;;;77.45;;
39486;SDS011;25173;50.430;18.926;2022-11-12T17:44:53;177.93;;;108.70;;
39486;SDS011;25173;50.430;18.926;2022-11-12T17:48:12;265.60;;;150.45;;
39486;SDS011;25173;50.430;18.926;2022-11-12T17:51:31;307.30;;;164.05;;
39486;SDS011;25173;50.430;18.926;2022-11-12T17:54:51;209.55;;;117.03;;
39486;SDS011;25173;50.430;18.926;2022-11-12T17:58:10;214.60;;;118.03;;
39486;SDS011;25173;50.430;18.926;2022-11-12T18:01:32;221.27;;;131.20;;
39486;SDS011;25173;50.430;18.926;2022-11-12T18:04:52;167.05;;;94.05;;
39486;SDS011;25173;50.430;18.926;2022-11-12T18:08:11;135.70;;;82.85;;
39486;SDS011;25173;50.430;18.926;2022-11-12T18:11:36;125.50;;;78.30;;
39486;SDS011;25173;50.430;18.926;2022-11-12T18:15:00;117.63;;;73.93;;
39486;SDS011;25173;50.430;18.926;2022-11-12T18:18:19;124.40;;;75.40;;
39486;SDS011;25173;50.430;18.926;2022-11-12T18:21:39;119.68;;;74.82;;
39486;SDS011;25173;50.430;18.926;2022-11-12T18:24:58;118.93;;;76.18;;
39486;SDS011;25173;50.430;18.926;2022-11-12T18:28:17;118.25;;;73.28;;
39486;SDS011;25173;50.430;18.926;2022-11-12T18:31:37;145.88;;;86.60;;
39486;SDS011;25173;50.430;18.926;2022-11-12T18:34:58;103.82;;;62.47;;
39486;SDS011;25173;50.430;18.926;2022-11-12T18:38:17;92.63;;;57.22;;
39486;SDS011;25173;50.430;18.926;2022-11-12T18:41:37;81.07;;;53.03;;
39486;SDS011;25173;50.430;18.926;2022-11-12T18:44:56;85.57;;;51.97;;
39486;SDS011;25173;50.430;18.926;2022-11-12T18:48:15;72.68;;;47.50;;
39486;SDS011;25173;50.430;18.926;2022-11-12T18:51:35;72.90;;;47.70;;
39486;SDS011;25173;50.430;18.926;2022-11-12T18:54:55;73.22;;;48.75;;
39486;SDS011;25173;50.430;18.926;2022-11-12T18:58:14;82.32;;;51.05;;
39486;SDS011;25173;50.430;18.926;2022-11-12T19:01:34;82.65;;;51.50;;
39486;SDS011;25173;50.430;18.926;2022-11-12T19:04:53;73.45;;;47.40;;
39486;SDS011;25173;50.430;18.926;2022-11-12T19:08:13;73.38;;;46.45;;
39486;SDS011;25173;50.430;18.926;2022-11-12T19:11:32;71.70;;;44.92;;
39486;SDS011;25173;50.430;18.926;2022-11-12T19:14:51;72.32;;;46.58;;
39486;SDS011;25173;50.430;18.926;2022-11-12T19:18:12;70.95;;;42.25;;
39486;SDS011;25173;50.430;18.926;2022-11-12T19:21:31;65.78;;;40.65;;
39486;SDS011;25173;50.430;18.926;2022-11-12T19:24:51;59.95;;;41.35;;
39486;SDS011;25173;50.430;18.926;2022-11-12T19:28:11;54.33;;;35.47;;
39486;SDS011;25173;50.430;18.926;2022-11-12T19:31:30;51.00;;;33.78;;
39486;SDS011;25173;50.430;18.926;2022-11-12T19:34:52;49.92;;;32.15;;
39486;SDS011;25173;50.430;18.926;2022-11-12T19:38:11;45.33;;;29.50;;
39486;SDS011;25173;50.430;18.926;2022-11-12T19:41:30;48.38;;;29.83;;
39486;SDS011;25173;50.430;18.926;2022-11-12T19:44:50;45.90;;;27.77;;
39486;SDS011;25173;50.430;18.926;2022-11-12T19:48:09;49.67;;;30.10;;
39486;SDS011;25173;50.430;18.926;2022-11-12T19:51:28;46.47;;;30.48;;
39486;SDS011;25173;50.430;18.926;2022-11-12T19:54:48;54.38;;;32.55;;
39486;SDS011;25173;50.430;18.926;2022-11-12T19:58:08;51.63;;;32.60;;
39486;SDS011;25173;50.430;18.926;2022-11-12T20:01:27;43.67;;;29.20;;
39486;SDS011;25173;50.430;18.926;2022-11-12T20:04:47;43.45;;;25.88;;
39486;SDS011;25173;50.430;18.926;2022-11-12T20:08:06;39.17;;;24.88;;
39486;SDS011;25173;50.430;18.926;2022-11-12T20:11:26;43.30;;;26.48;;
39486;SDS011;25173;50.430;18.926;2022-11-12T20:14:45;41.90;;;26.27;;
39486;SDS011;25173;50.430;18.926;2022-11-12T20:18:04;46.70;;;27.90;;
39486;SDS011;25173;50.430;18.926;2022-11-12T20:21:23;41.67;;;28.48;;
39486;SDS011;25173;50.430;18.926;2022-11-12T20:24:44;49.30;;;30.02;;
39486;SDS011;25173;50.430;18.926;2022-11-12T20:28:03;46.45;;;28.70;;
39486;SDS011;25173;50.430;18.926;2022-11-12T20:31:22;49.95;;;29.80;;
39486;SDS011;25173;50.430;18.926;2022-11-12T20:34:42;44.83;;;29.08;;
39486;SDS011;25173;50.430;18.926;2022-11-12T20:38:02;42.72;;;27.77;;
39486;SDS011;25173;50.430;18.926;2022-11-12T20:41:24;44.30;;;28.17;;
39486;SDS011;25173;50.430;18.926;2022-11-12T20:44:44;47.60;;;31.08;;
39486;SDS011;25173;50.430;18.926;2022-11-12T20:48:03;56.10;;;33.85;;
39486;SDS011;25173;50.430;18.926;2022-11-12T20:51:25;53.60;;;31.85;;
39486;SDS011;25173;50.430;18.926;2022-11-12T20:54:47;51.15;;;31.30;;
39486;SDS011;25173;50.430;18.926;2022-11-12T20:58:06;40.72;;;25.75;;
39486;SDS011;25173;50.430;18.926;2022-11-12T21:01:26;44.97;;;28.55;;
39486;SDS011;25173;50.430;18.926;2022-11-12T21:04:47;47.22;;;29.80;;
39486;SDS011;25173;50.430;18.926;2022-11-12T21:08:07;54.63;;;30.83;;
39486;SDS011;25173;50.430;18.926;2022-11-12T21:11:26;50.40;;;30.88;;